sensor_id;sensor_type;location;lat;lon;timestamp;pressure;altitude;pressure_sealevel;temperature;humidity
80502;BME280;70023;51.190;6.808;2023-08-30T00:00:03;100741.25;;;15.71;64.58
80502;BME280;70023;51.190;6.808;2023-08-30T00:05:04;100754.97;;;15.69;63.95
80502;BME280;70023;51.190;6.808;2023-08-30T00:10:06;100757.09;;;15.67;63.82
80502;BME280;70023;51.190;6.808;2023-08-30T00:15:10;100750.91;;;15.67;63.98
80502;BME280;70023;51.190;6.808;2023-08-30T00:20:13;100743.91;;;15.66;63.75
80502;BME280;70023;51.190;6.808;2023-08-30T00:25:30;100748.97;;;15.62;64.02
80502;BME280;70023;51.190;6.808;2023-08-30T00:30:41;100750.31;;;15.60;63.62
80502;BME280;70023;51.190;6.808;2023-08-30T00:35:42;100747.31;;;15.56;63.69
80502;BME280;70023;51.190;6.808;2023-08-30T00:40:43;100752.97;;;15.55;63.93
80502;BME280;70023;51.190;6.808;2023-08-30T00:45:44;100745.13;;;15.53;64.07
80502;BME280;70023;51.190;6.808;2023-08-30T00:50:47;100739.47;;;15.50;63.89
80502;BME280;70023;51.190;6.808;2023-08-30T00:55:48;100739.44;;;15.45;63.96
80502;BME280;70023;51.190;6.808;2023-08-30T01:00:49;100731.28;;;15.40;63.69
80502;BME280;70023;51.190;6.808;2023-08-30T01:05:50;100730.13;;;15.31;63.72
80502;BME280;70023;51.190;6.808;2023-08-30T01:15:55;100725.41;;;15.16;64.07
80502;BME280;70023;51.190;6.808;2023-08-30T01:20:58;100705.41;;;15.07;64.35
80502;BME280;70023;51.190;6.808;2023-08-30T01:26:06;100700.72;;;14.97;64.36
80502;BME280;70023;51.190;6.808;2023-08-30T01:31:14;100697.94;;;14.87;64.60
80502;BME280;70023;51.190;6.808;2023-08-30T01:36:16;100693.25;;;14.78;64.53
80502;BME280;70023;51.190;6.808;2023-08-30T01:41:17;100692.66;;;14.71;64.52
80502;BME280;70023;51.190;6.808;2023-08-30T01:46:19;100692.53;;;14.60;64.83
80502;BME280;70023;51.190;6.808;2023-08-30T01:51:21;100700.72;;;14.49;64.67
80502;BME280;70023;51.190;6.808;2023-08-30T01:56:22;100694.44;;;14.38;64.88
80502;BME280;70023;51.190;6.808;2023-08-30T02:01:24;100698.38;;;14.31;65.50
80502;BME280;70023;51.190;6.808;2023-08-30T02:06:26;100701.44;;;14.23;65.14
80502;BME280;70023;51.190;6.808;2023-08-30T02:11:47;100695.78;;;14.19;65.25
80502;BME280;70023;51.190;6.808;2023-08-30T02:16:51;100698.94;;;14.16;65.49
80502;BME280;70023;51.190;6.808;2023-08-30T02:21:54;100694.06;;;14.13;65.32
80502;BME280;70023;51.190;6.808;2023-08-30T02:26:55;100682.78;;;14.11;65.37
80502;BME280;70023;51.190;6.808;2023-08-30T02:31:56;100689.72;;;14.07;65.59
80502;BME280;70023;51.190;6.808;2023-08-30T02:36:57;100685.94;;;14.08;65.13
80502;BME280;70023;51.190;6.808;2023-08-30T02:41:58;100692.63;;;14.06;65.48
80502;BME280;70023;51.190;6.808;2023-08-30T02:46:59;100680.19;;;14.00;65.28
80502;BME280;70023;51.190;6.808;2023-08-30T02:52:00;100678.81;;;13.97;65.19
80502;BME280;70023;51.190;6.808;2023-08-30T02:57:01;100677.44;;;13.94;64.89
80502;BME280;70023;51.190;6.808;2023-08-30T03:02:02;100668.00;;;13.92;64.76
80502;BME280;70023;51.190;6.808;2023-08-30T03:07:03;100665.75;;;13.84;64.47
80502;BME280;70023;51.190;6.808;2023-08-30T03:12:04;100664.63;;;13.80;65.16
80502;BME280;70023;51.190;6.808;2023-08-30T03:17:06;100659.75;;;13.77;64.54
80502;BME280;70023;51.190;6.808;2023-08-30T03:22:07;100662.34;;;13.72;65.19
80502;BME280;70023;51.190;6.808;2023-08-30T03:27:08;100656.59;;;13.63;64.87
80502;BME280;70023;51.190;6.808;2023-08-30T03:32:09;100652.75;;;13.59;65.44
80502;BME280;70023;51.190;6.808;2023-08-30T03:37:10;100649.84;;;13.61;65.57
80502;BME280;70023;51.190;6.808;2023-08-30T03:42:14;100640.00;;;13.50;64.60
80502;BME280;70023;51.190;6.808;2023-08-30T03:47:15;100643.25;;;13.52;65.29
80502;BME280;70023;51.190;6.808;2023-08-30T03:52:15;100642.69;;;13.50;64.98
80502;BME280;70023;51.190;6.808;2023-08-30T03:57:16;100645.81;;;13.42;64.71
80502;BME280;70023;51.190;6.808;2023-08-30T04:02:18;100652.78;;;13.43;65.22
80502;BME280;70023;51.190;6.808;2023-08-30T04:07:19;100651.31;;;13.35;64.51
80502;BME280;70023;51.190;6.808;2023-08-30T04:12:20;100648.88;;;13.34;63.91
80502;BME280;70023;51.190;6.808;2023-08-30T04:17:21;100629.88;;;13.35;65.01
80502;BME280;70023;51.190;6.808;2023-08-30T04:22:22;100630.19;;;13.39;64.40
80502;BME280;70023;51.190;6.808;2023-08-30T04:27:23;100626.34;;;13.35;64.06
80502;BME280;70023;51.190;6.808;2023-08-30T04:32:24;100621.06;;;13.40;64.41
80502;BME280;70023;51.190;6.808;2023-08-30T04:37:29;100622.38;;;13.37;63.54
80502;BME280;70023;51.190;6.808;2023-08-30T04:42:31;100626.44;;;13.40;64.08
80502;BME280;70023;51.190;6.808;2023-08-30T04:47:32;100611.72;;;13.42;64.34
80502;BME280;70023;51.190;6.808;2023-08-30T04:52:33;100614.81;;;13.51;63.56
80502;BME280;70023;51.190;6.808;2023-08-30T04:57:34;100607.06;;;13.54;63.49
80502;BME280;70023;51.190;6.808;2023-08-30T05:02:35;100604.06;;;13.67;63.06
80502;BME280;70023;51.190;6.808;2023-08-30T05:07:36;100602.50;;;13.71;62.70
80502;BME280;70023;51.190;6.808;2023-08-30T05:12:38;100594.50;;;13.76;62.46
80502;BME280;70023;51.190;6.808;2023-08-30T05:17:39;100598.56;;;13.79;62.00
80502;BME280;70023;51.190;6.808;2023-08-30T05:22:40;100589.41;;;13.75;61.93
80502;BME280;70023;51.190;6.808;2023-08-30T05:27:41;100582.91;;;13.71;61.97
80502;BME280;70023;51.190;6.808;2023-08-30T05:32:43;100570.97;;;13.62;62.66
80502;BME280;70023;51.190;6.808;2023-08-30T05:37:44;100565.22;;;13.53;62.51
80502;BME280;70023;51.190;6.808;2023-08-30T05:42:45;100562.47;;;13.48;63.16
80502;BME280;70023;51.190;6.808;2023-08-30T05:47:46;100553.97;;;13.73;62.22
80502;BME280;70023;51.190;6.808;2023-08-30T05:52:47;100555.44;;;13.85;61.89
80502;BME280;70023;51.190;6.808;2023-08-30T05:57:52;100548.25;;;13.91;61.74
80502;BME280;70023;51.190;6.808;2023-08-30T06:02:53;100553.69;;;13.96;61.47
80502;BME280;70023;51.190;6.808;2023-08-30T06:07:54;100552.72;;;14.02;61.67
80502;BME280;70023;51.190;6.808;2023-08-30T06:12:55;100546.59;;;14.07;61.73
80502;BME280;70023;51.190;6.808;2023-08-30T06:17:56;100534.75;;;14.08;61.93
80502;BME280;70023;51.190;6.808;2023-08-30T06:22:58;100539.63;;;14.11;61.94
80502;BME280;70023;51.190;6.808;2023-08-30T06:28:02;100543.44;;;14.15;61.64
80502;BME280;70023;51.190;6.808;2023-08-30T06:33:04;100528.50;;;14.24;61.75
80502;BME280;70023;51.190;6.808;2023-08-30T06:38:05;100538.31;;;14.35;61.66
80502;BME280;70023;51.190;6.808;2023-08-30T06:43:06;100525.81;;;14.45;61.44
80502;BME280;70023;51.190;6.808;2023-08-30T06:48:07;100529.38;;;14.56;61.14
80502;BME280;70023;51.190;6.808;2023-08-30T06:53:08;100526.53;;;14.68;61.01
80502;BME280;70023;51.190;6.808;2023-08-30T06:58:09;100515.56;;;14.74;61.04
80502;BME280;70023;51.190;6.808;2023-08-30T07:03:10;100516.44;;;14.80;60.90
80502;BME280;70023;51.190;6.808;2023-08-30T07:08:11;100518.34;;;14.84;61.02
80502;BME280;70023;51.190;6.808;2023-08-30T07:13:13;100510.03;;;14.91;60.69
80502;BME280;70023;51.190;6.808;2023-08-30T07:18:14;100516.28;;;14.96;61.08
80502;BME280;70023;51.190;6.808;2023-08-30T07:23:15;100509.03;;;15.02;60.66
80502;BME280;70023;51.190;6.808;2023-08-30T07:28:16;100501.81;;;15.07;60.99
80502;BME280;70023;51.190;6.808;2023-08-30T07:33:17;100499.72;;;15.14;60.91
80502;BME280;70023;51.190;6.808;2023-08-30T07:38:18;100498.41;;;15.22;60.58
80502;BME280;70023;51.190;6.808;2023-08-30T07:43:19;100502.22;;;15.31;60.79
80502;BME280;70023;51.190;6.808;2023-08-30T07:48:20;100489.91;;;15.40;60.65
80502;BME280;70023;51.190;6.808;2023-08-30T07:53:21;100484.06;;;15.48;60.52
80502;BME280;70023;51.190;6.808;2023-08-30T07:58:22;100487.63;;;15.64;60.52
80502;BME280;70023;51.190;6.808;2023-08-30T08:03:23;100491.97;;;15.80;60.10
80502;BME280;70023;51.190;6.808;2023-08-30T08:08:26;100479.94;;;15.98;60.18
80502;BME280;70023;51.190;6.808;2023-08-30T08:13:27;100478.88;;;16.14;59.67
80502;BME280;70023;51.190;6.808;2023-08-30T08:18:28;100487.28;;;16.27;59.50
80502;BME280;70023;51.190;6.808;2023-08-30T08:23:29;100481.63;;;16.39;59.33
80502;BME280;70023;51.190;6.808;2023-08-30T08:28:30;100480.31;;;16.51;58.85
80502;BME280;70023;51.190;6.808;2023-08-30T08:33:31;100472.75;;;16.64;59.14
80502;BME280;70023;51.190;6.808;2023-08-30T08:38:32;100472.47;;;16.75;58.55
80502;BME280;70023;51.190;6.808;2023-08-30T08:43:33;100470.59;;;16.86;58.74
80502;BME280;70023;51.190;6.808;2023-08-30T08:48:39;100472.44;;;17.00;58.36
80502;BME280;70023;51.190;6.808;2023-08-30T08:53:41;100462.41;;;17.16;58.20
80502;BME280;70023;51.190;6.808;2023-08-30T08:58:42;100469.66;;;17.36;57.66
80502;BME280;70023;51.190;6.808;2023-08-30T09:03:44;100464.22;;;17.51;57.69
80502;BME280;70023;51.190;6.808;2023-08-30T09:08:45;100468.78;;;17.60;58.03
80502;BME280;70023;51.190;6.808;2023-08-30T09:13:46;100478.72;;;17.70;57.78
80502;BME280;70023;51.190;6.808;2023-08-30T09:18:56;100471.38;;;17.75;57.61
80502;BME280;70023;51.190;6.808;2023-08-30T09:24:02;100471.94;;;17.82;57.75
80502;BME280;70023;51.190;6.808;2023-08-30T09:29:04;100460.53;;;17.85;57.54
80502;BME280;70023;51.190;6.808;2023-08-30T09:34:07;100458.09;;;17.89;57.59
80502;BME280;70023;51.190;6.808;2023-08-30T09:39:11;100447.25;;;17.99;57.43
80502;BME280;70023;51.190;6.808;2023-08-30T09:44:23;100442.84;;;18.08;56.99
80502;BME280;70023;51.190;6.808;2023-08-30T09:49:29;100435.78;;;18.12;57.34
80502;BME280;70023;51.190;6.808;2023-08-30T09:54:42;100429.00;;;18.15;57.23
80502;BME280;70023;51.190;6.808;2023-08-30T09:59:52;100431.44;;;18.16;57.17
80502;BME280;70023;51.190;6.808;2023-08-30T10:04:57;100433.59;;;18.14;57.58
80502;BME280;70023;51.190;6.808;2023-08-30T10:10:00;100434.41;;;18.15;57.49
80502;BME280;70023;51.190;6.808;2023-08-30T10:15:04;100424.41;;;18.15;57.57
80502;BME280;70023;51.190;6.808;2023-08-30T10:20:06;100423.34;;;18.16;57.75
80502;BME280;70023;51.190;6.808;2023-08-30T10:25:11;100418.19;;;18.15;57.74
80502;BME280;70023;51.190;6.808;2023-08-30T10:30:16;100419.81;;;18.16;58.02
80502;BME280;70023;51.190;6.808;2023-08-30T10:35:20;100420.09;;;18.14;58.11
80502;BME280;70023;51.190;6.808;2023-08-30T10:40:21;100421.72;;;18.15;58.21
80502;BME280;70023;51.190;6.808;2023-08-30T10:45:23;100436.59;;;18.13;58.32
80502;BME280;70023;51.190;6.808;2023-08-30T10:50:28;100459.31;;;18.12;58.24
80502;BME280;70023;51.190;6.808;2023-08-30T10:55:31;100469.06;;;18.08;58.66
80502;BME280;70023;51.190;6.808;2023-08-30T11:00:32;100470.19;;;18.02;58.83
80502;BME280;70023;51.190;6.808;2023-08-30T11:05:35;100472.41;;;17.95;59.27
80502;BME280;70023;51.190;6.808;2023-08-30T11:10:40;100458.38;;;17.87;59.48
80502;BME280;70023;51.190;6.808;2023-08-30T11:15:42;100455.97;;;17.81;59.72
80502;BME280;70023;51.190;6.808;2023-08-30T11:20:44;100452.50;;;17.75;59.58
80502;BME280;70023;51.190;6.808;2023-08-30T11:25:49;100447.94;;;17.71;59.61
80502;BME280;70023;51.190;6.808;2023-08-30T11:30:54;100457.16;;;17.65;59.95
80502;BME280;70023;51.190;6.808;2023-08-30T11:35:55;100456.34;;;17.59;60.08
80502;BME280;70023;51.190;6.808;2023-08-30T11:40:58;100451.50;;;17.56;60.76
80502;BME280;70023;51.190;6.808;2023-08-30T11:45:59;100448.03;;;17.56;60.69
80502;BME280;70023;51.190;6.808;2023-08-30T11:51:00;100445.88;;;17.53;60.29
80502;BME280;70023;51.190;6.808;2023-08-30T11:56:02;100446.38;;;17.50;60.14
80502;BME280;70023;51.190;6.808;2023-08-30T12:01:05;100448.25;;;17.49;60.17
80502;BME280;70023;51.190;6.808;2023-08-30T12:06:10;100452.91;;;17.44;60.51
80502;BME280;70023;51.190;6.808;2023-08-30T12:11:18;100453.44;;;17.41;60.99
80502;BME280;70023;51.190;6.808;2023-08-30T12:16:20;100449.66;;;17.37;60.93
80502;BME280;70023;51.190;6.808;2023-08-30T12:21:21;100455.88;;;17.32;60.95
80502;BME280;70023;51.190;6.808;2023-08-30T12:26:31;100439.69;;;17.32;60.72
80502;BME280;70023;51.190;6.808;2023-08-30T12:31:35;100444.84;;;17.34;60.50
80502;BME280;70023;51.190;6.808;2023-08-30T12:36:42;100445.66;;;17.34;60.94
80502;BME280;70023;51.190;6.808;2023-08-30T12:41:43;100444.03;;;17.33;60.92
80502;BME280;70023;51.190;6.808;2023-08-30T12:46:44;100439.69;;;17.32;61.52
80502;BME280;70023;51.190;6.808;2023-08-30T12:51:45;100450.78;;;17.31;61.63
80502;BME280;70023;51.190;6.808;2023-08-30T12:56:46;100451.06;;;17.29;61.37
80502;BME280;70023;51.190;6.808;2023-08-30T13:01:47;100449.97;;;17.25;62.02
80502;BME280;70023;51.190;6.808;2023-08-30T13:06:48;100446.47;;;17.24;61.25
80502;BME280;70023;51.190;6.808;2023-08-30T13:11:49;100442.16;;;17.23;61.80
80502;BME280;70023;51.190;6.808;2023-08-30T13:16:50;100435.66;;;17.24;61.86
80502;BME280;70023;51.190;6.808;2023-08-30T13:21:51;100434.59;;;17.31;61.69
80502;BME280;70023;51.190;6.808;2023-08-30T13:26:52;100429.72;;;17.33;61.94
80502;BME280;70023;51.190;6.808;2023-08-30T13:31:53;100422.44;;;17.33;61.77
80502;BME280;70023;51.190;6.808;2023-08-30T13:36:54;100416.75;;;17.35;61.72
80502;BME280;70023;51.190;6.808;2023-08-30T13:41:55;100418.66;;;17.34;62.24
80502;BME280;70023;51.190;6.808;2023-08-30T13:46:56;100416.50;;;17.36;61.83
80502;BME280;70023;51.190;6.808;2023-08-30T13:51:58;100406.47;;;17.37;61.68
80502;BME280;70023;51.190;6.808;2023-08-30T13:56:59;100403.78;;;17.37;62.25
80502;BME280;70023;51.190;6.808;2023-08-30T14:02:00;100402.19;;;17.36;62.05
80502;BME280;70023;51.190;6.808;2023-08-30T14:07:04;100405.69;;;17.36;61.83
80502;BME280;70023;51.190;6.808;2023-08-30T14:12:05;100422.94;;;17.35;61.59
80502;BME280;70023;51.190;6.808;2023-08-30T14:17:06;100434.03;;;17.34;61.79
80502;BME280;70023;51.190;6.808;2023-08-30T14:22:07;100426.47;;;17.31;61.86
80502;BME280;70023;51.190;6.808;2023-08-30T14:27:08;100438.63;;;17.28;61.82
80502;BME280;70023;51.190;6.808;2023-08-30T14:32:09;100448.91;;;17.26;61.81
80502;BME280;70023;51.190;6.808;2023-08-30T14:37:10;100457.53;;;17.23;61.83
80502;BME280;70023;51.190;6.808;2023-08-30T14:42:11;100459.72;;;17.21;62.18
80502;BME280;70023;51.190;6.808;2023-08-30T14:47:12;100467.53;;;17.17;61.92
80502;BME280;70023;51.190;6.808;2023-08-30T14:52:14;100470.00;;;17.14;62.32
80502;BME280;70023;51.190;6.808;2023-08-30T14:57:16;100468.66;;;17.11;62.32
80502;BME280;70023;51.190;6.808;2023-08-30T15:02:17;100439.50;;;17.08;62.04
80502;BME280;70023;51.190;6.808;2023-08-30T15:07:18;100430.88;;;17.06;62.43
80502;BME280;70023;51.190;6.808;2023-08-30T15:12:19;100441.97;;;17.05;62.33
80502;BME280;70023;51.190;6.808;2023-08-30T15:17:20;100427.06;;;17.12;62.04
80502;BME280;70023;51.190;6.808;2023-08-30T15:22:21;100424.09;;;17.19;62.20
80502;BME280;70023;51.190;6.808;2023-08-30T15:27:22;100421.38;;;17.29;61.97
80502;BME280;70023;51.190;6.808;2023-08-30T15:32:23;100415.38;;;17.37;62.28
80502;BME280;70023;51.190;6.808;2023-08-30T15:37:24;100417.00;;;17.43;61.21
80502;BME280;70023;51.190;6.808;2023-08-30T15:42:25;100421.78;;;17.51;61.07
80502;BME280;70023;51.190;6.808;2023-08-30T15:47:26;100424.50;;;17.56;61.38
80502;BME280;70023;51.190;6.808;2023-08-30T15:52:27;100432.84;;;17.65;61.69
80502;BME280;70023;51.190;6.808;2023-08-30T15:57:28;100431.72;;;17.71;61.90
80502;BME280;70023;51.190;6.808;2023-08-30T16:02:29;100433.31;;;17.77;62.07
80502;BME280;70023;51.190;6.808;2023-08-30T16:07:31;100431.41;;;17.82;62.15
80502;BME280;70023;51.190;6.808;2023-08-30T16:12:31;100450.00;;;17.89;62.17
80502;BME280;70023;51.190;6.808;2023-08-30T16:17:32;100434.56;;;17.95;62.05
80502;BME280;70023;51.190;6.808;2023-08-30T16:22:34;100439.13;;;17.99;62.21
80502;BME280;70023;51.190;6.808;2023-08-30T16:27:35;100433.69;;;18.04;62.27
80502;BME280;70023;51.190;6.808;2023-08-30T16:32:39;100430.66;;;18.11;62.33
80502;BME280;70023;51.190;6.808;2023-08-30T16:37:40;100442.00;;;18.13;62.39
80502;BME280;70023;51.190;6.808;2023-08-30T16:42:41;100440.13;;;18.13;62.13
80502;BME280;70023;51.190;6.808;2023-08-30T16:47:42;100443.63;;;18.14;62.21
80502;BME280;70023;51.190;6.808;2023-08-30T16:52:43;100438.50;;;18.12;62.42
80502;BME280;70023;51.190;6.808;2023-08-30T16:57:44;100449.03;;;18.14;62.26
80502;BME280;70023;51.190;6.808;2023-08-30T17:02:46;100447.94;;;18.15;62.15
80502;BME280;70023;51.190;6.808;2023-08-30T17:07:50;100449.56;;;18.16;62.27
80502;BME280;70023;51.190;6.808;2023-08-30T17:12:52;100451.16;;;18.17;62.19
80502;BME280;70023;51.190;6.808;2023-08-30T17:17:57;100462.78;;;18.17;62.12
80502;BME280;70023;51.190;6.808;2023-08-30T17:22:58;100471.19;;;18.16;62.07
80502;BME280;70023;51.190;6.808;2023-08-30T17:28:02;100471.72;;;18.13;61.96
80502;BME280;70023;51.190;6.808;2023-08-30T17:33:04;100471.53;;;18.04;62.14
80502;BME280;70023;51.190;6.808;2023-08-30T17:38:05;100479.41;;;17.96;62.44
80502;BME280;70023;51.190;6.808;2023-08-30T17:43:06;100484.84;;;17.85;62.64
80502;BME280;70023;51.190;6.808;2023-08-30T17:48:08;100482.19;;;17.75;62.72
80502;BME280;70023;51.190;6.808;2023-08-30T17:53:12;100483.06;;;17.66;62.86
80502;BME280;70023;51.190;6.808;2023-08-30T17:58:16;100480.69;;;17.54;62.74
80502;BME280;70023;51.190;6.808;2023-08-30T18:03:17;100490.94;;;17.42;62.97
80502;BME280;70023;51.190;6.808;2023-08-30T18:08:22;100490.72;;;17.29;63.28
80502;BME280;70023;51.190;6.808;2023-08-30T18:13:23;100491.81;;;17.12;63.37
80502;BME280;70023;51.190;6.808;2023-08-30T18:18:24;100501.84;;;16.97;64.04
80502;BME280;70023;51.190;6.808;2023-08-30T18:23:25;100505.66;;;16.81;64.27
80502;BME280;70023;51.190;6.808;2023-08-30T18:28:26;100509.94;;;16.67;64.75
80502;BME280;70023;51.190;6.808;2023-08-30T18:33:27;100518.84;;;16.52;65.01
80502;BME280;70023;51.190;6.808;2023-08-30T18:38:28;100522.84;;;16.39;64.82
80502;BME280;70023;51.190;6.808;2023-08-30T18:43:29;100529.56;;;16.27;65.05
80502;BME280;70023;51.190;6.808;2023-08-30T18:48:30;100539.22;;;16.13;64.96
80502;BME280;70023;51.190;6.808;2023-08-30T18:53:31;100538.91;;;15.99;65.64
80502;BME280;70023;51.190;6.808;2023-08-30T18:58:32;100550.19;;;15.86;65.43
80502;BME280;70023;51.190;6.808;2023-08-30T19:03:34;100559.53;;;15.73;65.89
80502;BME280;70023;51.190;6.808;2023-08-30T19:08:35;100564.34;;;15.61;65.76
80502;BME280;70023;51.190;6.808;2023-08-30T19:13:36;100576.38;;;15.49;66.03
80502;BME280;70023;51.190;6.808;2023-08-30T19:18:39;100584.34;;;15.39;66.44
80502;BME280;70023;51.190;6.808;2023-08-30T19:23:40;100590.97;;;15.26;66.54
80502;BME280;70023;51.190;6.808;2023-08-30T19:28:44;100592.25;;;15.13;66.82
80502;BME280;70023;51.190;6.808;2023-08-30T19:33:45;100591.63;;;15.01;66.51
80502;BME280;70023;51.190;6.808;2023-08-30T19:38:46;100596.34;;;14.89;66.97
80502;BME280;70023;51.190;6.808;2023-08-30T19:43:50;100611.84;;;14.77;67.15
80502;BME280;70023;51.190;6.808;2023-08-30T19:48:54;100614.91;;;14.64;67.30
80502;BME280;70023;51.190;6.808;2023-08-30T19:53:56;100612.38;;;14.52;67.37
80502;BME280;70023;51.190;6.808;2023-08-30T19:58:57;100622.69;;;14.39;67.74
80502;BME280;70023;51.190;6.808;2023-08-30T20:03:58;100626.31;;;14.28;67.70
80502;BME280;70023;51.190;6.808;2023-08-30T20:09:00;100636.91;;;14.18;67.70
80502;BME280;70023;51.190;6.808;2023-08-30T20:14:04;100639.47;;;14.08;67.79
80502;BME280;70023;51.190;6.808;2023-08-30T20:19:05;100643.09;;;13.96;68.24
80502;BME280;70023;51.190;6.808;2023-08-30T20:24:06;100652.06;;;13.85;67.98
80502;BME280;70023;51.190;6.808;2023-08-30T20:29:07;100660.00;;;13.75;68.35
80502;BME280;70023;51.190;6.808;2023-08-30T20:34:12;100662.28;;;13.67;68.47
80502;BME280;70023;51.190;6.808;2023-08-30T20:39:14;100656.25;;;13.60;68.51
80502;BME280;70023;51.190;6.808;2023-08-30T20:44:15;100661.00;;;13.53;68.35
80502;BME280;70023;51.190;6.808;2023-08-30T20:49:17;100667.56;;;13.45;68.53
80502;BME280;70023;51.190;6.808;2023-08-30T20:54:18;100666.94;;;13.38;68.66
80502;BME280;70023;51.190;6.808;2023-08-30T20:59:19;100675.16;;;13.32;68.75
80502;BME280;70023;51.190;6.808;2023-08-30T21:04:21;100669.91;;;13.25;68.15
80502;BME280;70023;51.190;6.808;2023-08-30T21:09:22;100677.66;;;13.21;68.72
80502;BME280;70023;51.190;6.808;2023-08-30T21:14:23;100663.59;;;13.14;68.66
80502;BME280;70023;51.190;6.808;2023-08-30T21:19:25;100666.75;;;13.11;67.87
80502;BME280;70023;51.190;6.808;2023-08-30T21:24:26;100668.53;;;13.06;68.58
80502;BME280;70023;51.190;6.808;2023-08-30T21:29:27;100669.78;;;13.03;68.01
80502;BME280;70023;51.190;6.808;2023-08-30T21:34:28;100667.84;;;12.99;68.01
80502;BME280;70023;51.190;6.808;2023-08-30T21:39:29;100682.53;;;12.96;67.98
80502;BME280;70023;51.190;6.808;2023-08-30T21:44:30;100663.69;;;12.91;68.36
80502;BME280;70023;51.190;6.808;2023-08-30T21:49:31;100675.47;;;12.90;67.70
80502;BME280;70023;51.190;6.808;2023-08-30T21:54:32;100674.91;;;12.88;67.34
80502;BME280;70023;51.190;6.808;2023-08-30T21:59:33;100676.75;;;12.88;67.92
80502;BME280;70023;51.190;6.808;2023-08-30T22:04:35;100676.19;;;12.86;67.54
80502;BME280;70023;51.190;6.808;2023-08-30T22:09:36;100682.59;;;12.85;67.30
80502;BME280;70023;51.190;6.808;2023-08-30T22:14:38;100682.03;;;12.83;67.78
80502;BME280;70023;51.190;6.808;2023-08-30T22:19:39;100685.75;;;12.82;66.88
80502;BME280;70023;51.190;6.808;2023-08-30T22:24:41;100682.75;;;12.78;66.96
80502;BME280;70023;51.190;6.808;2023-08-30T22:29:42;100690.22;;;12.76;66.79
80502;BME280;70023;51.190;6.808;2023-08-30T22:34:43;100692.81;;;12.71;67.08
80502;BME280;70023;51.190;6.808;2023-08-30T22:39:44;100690.59;;;12.68;67.02
80502;BME280;70023;51.190;6.808;2023-08-30T22:44:45;100684.88;;;12.64;66.91
80502;BME280;70023;51.190;6.808;2023-08-30T22:49:46;100676.75;;;12.59;67.46
80502;BME280;70023;51.190;6.808;2023-08-30T22:54:47;100682.59;;;12.56;67.19
80502;BME280;70023;51.190;6.808;2023-08-30T22:59:49;100691.94;;;12.54;67.48
80502;BME280;70023;51.190;6.808;2023-08-30T23:04:50;100679.25;;;12.49;66.57
80502;BME280;70023;51.190;6.808;2023-08-30T23:09:51;100686.47;;;12.49;67.37
80502;BME280;70023;51.190;6.808;2023-08-30T23:14:52;100683.44;;;12.45;66.84
80502;BME280;70023;51.190;6.808;2023-08-30T23:19:53;100681.47;;;12.41;66.72
80502;BME280;70023;51.190;6.808;2023-08-30T23:24:56;100687.53;;;12.36;67.62
80502;BME280;70023;51.190;6.808;2023-08-30T23:29:57;100701.19;;;12.35;66.92
80502;BME280;70023;51.190;6.808;2023-08-30T23:34:59;100700.59;;;12.33;66.95
80502;BME280;70023;51.190;6.808;2023-08-30T23:40:00;100704.56;;;12.30;66.41
80502;BME280;70023;51.190;6.808;2023-08-30T23:45:04;100712.59;;;12.30;66.53
80502;BME280;70023;51.190;6.808;2023-08-30T23:50:05;100710.25;;;12.34;66.80
80502;BME280;70023;51.190;6.808;2023-08-30T23:55:08;100717.25;;;12.35;65.76
